Home   Weather   Germany   Helmstedt   Past weeks
Flag for Germany

Past Weather in Helmstedt, Lower Saxony, Germany — Yesterday and Last 2 Weeks

Currently: 48 °F. Clear. (Weather station: Braunschweig Wolfsburg, Germany). See more current weather

Past Weather in Helmstedt — Graph

°F

Helmstedt Temperature Yesterday

Maximum temperature yesterday: 66 °F (at 2:50 pm)
Minimum temperature yesterday: 48 °F (at 11:20 pm)
Average temperature yesterday: 57 °F

High & Low Weather Summary for the Past Weeks

 TemperatureHumidityPressure
High66 °F (Feb 21, 12:50 pm)100% (Feb 15, 5:20 pm)30.77 "Hg (Feb 15, 5:20 pm)
Low-2 °F (Feb 14, 8:20 am)26% (Feb 21, 2:50 pm)29.77 "Hg (Feb 10, 3:20 am)
Average35 °F73%30.25 "Hg
* Reported Feb 9 11:20 pm — Feb 24 11:50 pm, Helmstedt. Weather by CustomWeather, © 2021

Note: Actual official high and low records may vary slightly from our data, if they occured in-between our weather recording intervals... More about our weather records

Helmstedt Weather History for the Previous 24 Hours

Scroll right to see more
 ConditionsComfort  
Time TempWeatherWind HumidityBarometerVisibility
11:50 pm
Wed, Feb 24
48 °FClear.5 mph82%30.36 "HgN/A
11:20 pm48 °FClear.3 mph82%30.36 "HgN/A
10:50 pm52 °FClear.3 mph77%30.36 "HgN/A
10:20 pm54 °FClear.6 mph72%30.36 "HgN/A
9:50 pm55 °FClear.6 mph67%30.36 "HgN/A
9:20 pm55 °FClear.6 mph67%30.36 "HgN/A
8:50 pm55 °FClear.7 mph67%30.36 "HgN/A
8:20 pm55 °FClear.6 mph67%30.36 "HgN/A
7:50 pm57 °FClear.5 mph63%30.39 "HgN/A
7:20 pm57 °FClear.5 mph63%30.39 "Hg10 mi
6:50 pm57 °FClear.3 mph63%30.39 "Hg10 mi
6:20 pm61 °FPassing clouds.3 mph55%30.39 "HgN/A
5:50 pm63 °FPassing clouds.5 mph52%30.39 "HgN/A
5:20 pm63 °FSunny.7 mph52%30.39 "Hg10 mi
4:50 pm64 °FSunny.8 mph49%30.39 "Hg10 mi
4:20 pm64 °FSunny.8 mph52%30.39 "Hg10 mi
3:50 pm66 °FPassing clouds.9 mph49%30.39 "HgN/A
3:20 pm66 °FPassing clouds.12 mph49%30.39 "HgN/A
2:50 pm66 °FPassing clouds.10 mph49%30.39 "HgN/A
2:20 pm64 °FSunny.12 mph52%30.39 "Hg10 mi
1:50 pm64 °FSunny.9 mph52%30.42 "Hg10 mi
1:20 pm64 °FSunny.12 mph56%30.42 "Hg10 mi
12:50 pm64 °FSunny.10 mph56%30.42 "Hg10 mi
12:20 pm63 °FPassing clouds.9 mph56%30.45 "HgN/A
11:50 am63 °FPassing clouds.12 mph56%30.45 "HgN/A
11:20 am63 °FPassing clouds.9 mph56%30.45 "HgN/A
10:50 am61 °FSunny.10 mph59%30.45 "Hg10 mi
10:20 am59 °FSunny.9 mph63%30.45 "Hg10 mi
9:50 am59 °FPassing clouds.5 mph63%30.45 "HgN/A
9:20 am57 °FSunny.7 mph63%30.45 "Hg10 mi
8:50 am55 °FSunny.6 mph67%30.45 "Hg10 mi
8:20 am54 °FSunny.6 mph72%30.45 "Hg10 mi
7:50 am54 °FSunny.6 mph72%30.45 "HgN/A
7:20 am52 °FSunny.6 mph72%30.45 "HgN/A
6:50 am52 °FClear.5 mph72%30.45 "HgN/A
6:20 am54 °FClear.6 mph67%30.45 "HgN/A
5:50 am54 °FClear.8 mph67%30.45 "HgN/A
5:20 am55 °FClear.8 mph67%30.45 "HgN/A
4:50 am55 °FClear.7 mph67%30.45 "HgN/A
4:20 am55 °FClear.8 mph67%30.45 "HgN/A
3:50 am55 °FClear.8 mph67%30.45 "HgN/A
3:20 am55 °FClear.8 mph67%30.45 "HgN/A
2:50 am52 °FClear.5 mph72%30.45 "HgN/A
2:20 am52 °FClear.6 mph72%30.45 "HgN/A
1:50 am52 °FClear.3 mph72%30.45 "HgN/A
1:20 am54 °FClear.No wind67%30.45 "HgN/A
Weather by CustomWeather, © 2021

See weather overview